createdAt,value
2019-05-14T00:00:26.472Z,103220.23
2019-05-14T00:02:55.856Z,103218.58
2019-05-14T00:05:25.227Z,103218.58
2019-05-14T00:07:54.890Z,103215.56
2019-05-14T00:10:24.601Z,103225.91
2019-05-14T00:12:53.972Z,103217.11
2019-05-14T00:15:24.314Z,103215.91
2019-05-14T00:17:53.899Z,103217.03
2019-05-14T00:20:23.263Z,103217.03
2019-05-14T00:22:53.855Z,103218.89
2019-05-14T00:25:23.297Z,103216.74
2019-05-14T00:27:52.986Z,103221.34
2019-05-14T00:30:22.369Z,103221.34
2019-05-14T00:32:52.199Z,103219.19
2019-05-14T00:35:22.222Z,103213.02
2019-05-14T00:37:52.213Z,103209.91
2019-05-14T00:40:22.406Z,103208.66
2019-05-14T00:42:53.261Z,103214.98
2019-05-14T00:45:24.007Z,103214.98
2019-05-14T00:47:53.358Z,103210.09
2019-05-14T00:50:25.597Z,103211.97
2019-05-14T00:52:55.274Z,103212.06
2019-05-14T00:55:25.234Z,103212.06
2019-05-14T00:57:56.434Z,103210.30
2019-05-14T01:00:26.051Z,103205.45
2019-05-14T01:02:55.428Z,103205.45
2019-05-14T01:05:25.003Z,103208.61
2019-05-14T01:07:54.354Z,103201.06
2019-05-14T01:10:24.016Z,103194.85
2019-05-14T01:12:53.183Z,103200.25
2019-05-14T01:15:22.565Z,103195.38
2019-05-14T01:17:52.921Z,103190.11
2019-05-14T01:20:23.649Z,103187.91
2019-05-14T01:22:53.149Z,103186.61
2019-05-14T01:25:23.712Z,103188.00
2019-05-14T01:27:53.262Z,103173.34
2019-05-14T01:30:23.521Z,103170.75
2019-05-14T01:32:54.068Z,103164.11
2019-05-14T01:35:23.438Z,103162.77
2019-05-14T01:37:53.101Z,103169.45
2019-05-14T01:40:26.287Z,103164.15
2019-05-14T01:42:55.637Z,103166.39
2019-05-14T01:45:28.422Z,103164.16
2019-05-14T01:47:56.244Z,103158.42
2019-05-14T01:50:25.604Z,103156.66
2019-05-14T01:52:55.233Z,103155.36
2019-05-14T01:55:24.637Z,103154.54
2019-05-14T01:58:05.451Z,103145.23
2019-05-14T02:00:44.378Z,103152.91
2019-05-14T02:03:14.061Z,103146.35
2019-05-14T02:05:43.885Z,103144.23
2019-05-14T02:08:13.438Z,103147.81
2019-05-14T02:10:42.826Z,103146.95
2019-05-14T02:13:12.504Z,103144.80
2019-05-14T02:15:42.999Z,103135.48
2019-05-14T02:18:32.366Z,103136.43
2019-05-14T02:21:01.936Z,103141.34
2019-05-14T02:23:52.223Z,103133.45
2019-05-14T02:27:03.559Z,103140.13
2019-05-14T02:29:33.208Z,103142.80
2019-05-14T02:32:02.586Z,103148.66
2019-05-14T02:34:32.236Z,103148.23
2019-05-14T02:37:01.621Z,103143.80
2019-05-14T02:40:10.241Z,103146.08
2019-05-14T02:42:40.360Z,103139.91
2019-05-14T02:45:20.421Z,103142.66
2019-05-14T02:50:44.372Z,103147.14
2019-05-14T02:53:13.720Z,103148.52
2019-05-14T02:55:43.379Z,103144.97
2019-05-14T02:58:12.765Z,103144.97
2019-05-14T03:00:42.292Z,103139.20
2019-05-14T03:03:13.634Z,103140.61
2019-05-14T03:05:43.336Z,103137.20
2019-05-14T03:08:13.022Z,103139.87
2019-05-14T03:10:42.492Z,103147.02
2019-05-14T03:13:11.869Z,103138.58
2019-05-14T03:15:41.421Z,103143.55
2019-05-14T03:18:11.383Z,103140.92
2019-05-14T03:20:42.439Z,103133.34
2019-05-14T03:23:18.182Z,103129.77
2019-05-14T03:26:02.240Z,103140.02
2019-05-14T03:28:31.617Z,103137.78
2019-05-14T03:31:03.997Z,103136.91
2019-05-14T03:33:44.091Z,103135.58
2019-05-14T03:36:25.946Z,103128.91
2019-05-14T03:41:39.373Z,103128.59
2019-05-14T03:44:28.917Z,103126.34
2019-05-14T03:47:09.965Z,103117.40
2019-05-14T03:49:42.454Z,103119.13
2019-05-14T03:52:11.834Z,103123.49
2019-05-14T03:54:41.492Z,103126.12
2019-05-14T03:57:11.151Z,103127.42
2019-05-14T03:59:40.864Z,103132.75
2019-05-14T04:02:30.835Z,103132.28
2019-05-14T04:05:00.484Z,103136.69
2019-05-14T04:07:50.330Z,103132.21
2019-05-14T04:20:09.548Z,103137.98
2019-05-14T04:23:39.568Z,103137.98
2019-05-14T04:35:42.579Z,103142.34
2019-05-14T04:38:11.952Z,103141.36
2019-05-14T04:40:41.609Z,103135.47
2019-05-14T04:43:10.992Z,103137.63
2019-05-14T04:45:40.666Z,103134.87
2019-05-14T04:48:27.164Z,103127.67
2019-05-14T04:51:00.775Z,103134.75
2019-05-14T04:53:49.944Z,103140.53
2019-05-14T04:56:19.776Z,103147.20
2019-05-14T04:59:10.683Z,103142.38
2019-05-14T05:01:49.298Z,103140.65
2019-05-14T05:04:23.879Z,103140.26
2019-05-14T05:06:53.560Z,103136.16
2019-05-14T05:09:22.963Z,103143.28
2019-05-14T05:11:52.623Z,103139.19
2019-05-14T05:14:23.872Z,103144.45
2019-05-14T05:16:59.730Z,103140.83
2019-05-14T05:19:39.082Z,103140.74
2019-05-14T05:22:13.013Z,103144.92
2019-05-14T05:24:42.663Z,103151.41
2019-05-14T05:27:12.054Z,103151.41
2019-05-14T05:29:41.747Z,103151.42
2019-05-14T05:32:11.417Z,103142.56
2019-05-14T05:34:40.874Z,103146.98
2019-05-14T05:37:10.250Z,103152.39
2019-05-14T05:39:39.761Z,103141.14
2019-05-14T05:42:09.430Z,103145.13
2019-05-14T05:45:18.962Z,103152.30
2019-05-14T05:48:08.344Z,103150.69
2019-05-14T05:50:59.164Z,103150.69
2019-05-14T05:53:54.067Z,103139.83
2019-05-14T05:56:25.625Z,103139.83
2019-05-14T05:58:55.015Z,103126.64
2019-05-14T06:01:46.475Z,103130.98
2019-05-14T06:04:21.169Z,103127.73
2019-05-14T06:06:50.856Z,103122.71
2019-05-14T06:09:20.234Z,103125.84
2019-05-14T06:11:49.842Z,103126.13
2019-05-14T06:14:19.510Z,103126.13
2019-05-14T06:17:08.746Z,103120.74
2019-05-14T06:19:44.927Z,103120.74
2019-05-14T06:22:14.290Z,103112.80
2019-05-14T06:24:43.929Z,103117.60
2019-05-14T06:27:13.285Z,103111.16
2019-05-14T06:29:42.904Z,103116.71
2019-05-14T06:32:12.262Z,103116.71
2019-05-14T06:34:53.898Z,103104.61
2019-05-14T06:37:23.280Z,103104.61
2019-05-14T06:39:52.931Z,103111.30
2019-05-14T06:42:22.291Z,103112.86
2019-05-14T06:44:51.905Z,103118.37
2019-05-14T06:47:21.556Z,103115.55
2019-05-14T06:49:51.088Z,103119.06
2019-05-14T06:52:20.455Z,103114.55
2019-05-14T06:54:50.019Z,103120.02
2019-05-14T06:57:19.383Z,103118.42
2019-05-14T06:59:48.907Z,103114.78
2019-05-14T07:02:19.301Z,103123.25
2019-05-14T07:05:08.618Z,103118.05
2019-05-14T07:07:40.469Z,103114.48
2019-05-14T07:10:28.800Z,103118.52
2019-05-14T07:13:04.487Z,103119.39
2019-05-14T07:15:34.051Z,103120.64
2019-05-14T07:23:49.029Z,103121.34
2019-05-14T07:26:24.515Z,103125.27
2019-05-14T07:29:13.082Z,103125.61
2019-05-14T07:31:42.467Z,103124.09
2019-05-14T07:34:12.009Z,103117.16
2019-05-14T07:36:41.384Z,103128.30
2019-05-14T07:39:11.333Z,103131.63
2019-05-14T07:41:41.004Z,103134.01
2019-05-14T07:44:10.373Z,103132.74
2019-05-14T07:46:39.789Z,103132.62
2019-05-14T07:49:11.782Z,103130.83
2019-05-14T07:51:45.456Z,103126.84
2019-05-14T07:54:15.060Z,103121.44
2019-05-14T07:56:44.427Z,103121.11
2019-05-14T07:59:14.097Z,103119.20
2019-05-14T08:01:43.462Z,103116.10
2019-05-14T08:04:20.005Z,103120.49
2019-05-14T08:06:59.300Z,103117.84
2019-05-14T08:12:39.156Z,103110.20
2019-05-14T08:15:28.197Z,103104.58
2019-05-14T08:17:58.580Z,103104.41
2019-05-14T08:20:34.110Z,103098.42
2019-05-14T08:23:03.475Z,103097.22
2019-05-14T08:25:33.015Z,103091.58
2019-05-14T08:28:02.636Z,103081.67
2019-05-14T08:30:32.260Z,103076.95
2019-05-14T08:33:01.665Z,103079.17
2019-05-14T08:35:34.035Z,103064.09
2019-05-14T08:38:21.308Z,103067.09
2019-05-14T08:40:50.989Z,103066.78
2019-05-14T08:43:20.379Z,103069.42
2019-05-14T08:45:50.723Z,103063.20
2019-05-14T08:48:20.227Z,103061.95
2019-05-14T08:50:49.592Z,103053.98
2019-05-14T08:53:19.122Z,103053.69
2019-05-14T08:55:48.957Z,103061.61
2019-05-14T08:58:25.470Z,103062.09
2019-05-14T09:01:05.232Z,103039.91
2019-05-14T09:03:34.613Z,103039.91
2019-05-14T09:06:04.292Z,103039.72
2019-05-14T09:17:48.457Z,103024.34
2019-05-14T09:20:38.147Z,103029.22
2019-05-14T09:23:14.306Z,103034.45
2019-05-14T09:25:47.001Z,103036.20
2019-05-14T09:28:23.742Z,103020.73
2019-05-14T09:30:53.396Z,103026.95
2019-05-14T09:33:24.375Z,103023.66
2019-05-14T09:36:13.584Z,103025.03
2019-05-14T09:38:42.111Z,103017.58
2019-05-14T09:41:18.399Z,103016.90
2019-05-14T09:43:53.362Z,103016.59
2019-05-14T09:46:22.743Z,103019.32
2019-05-14T09:48:52.405Z,103017.05
2019-05-14T09:51:21.805Z,103018.77
2019-05-14T09:53:51.427Z,103016.72
2019-05-14T09:56:20.803Z,103012.14
2019-05-14T09:58:50.474Z,103004.65
2019-05-14T10:01:21.562Z,103001.28
2019-05-14T10:03:50.951Z,102998.92
2019-05-14T10:06:20.972Z,102992.21
2019-05-14T10:09:10.621Z,102991.08
2019-05-14T10:11:40.000Z,102991.86
2019-05-14T10:14:09.565Z,102976.70
2019-05-14T10:16:38.985Z,102992.17
2019-05-14T10:19:08.498Z,102972.97
2019-05-14T10:21:38.863Z,102964.28
2019-05-14T10:24:29.136Z,102970.17
2019-05-14T10:27:09.266Z,102959.61
2019-05-14T10:29:45.141Z,102954.88
2019-05-14T10:32:14.572Z,102958.91
2019-05-14T10:34:43.928Z,102961.31
2019-05-14T10:37:13.490Z,102952.99
2019-05-14T10:39:42.849Z,102946.26
2019-05-14T10:42:20.055Z,102948.98
2019-05-14T10:45:01.834Z,102953.29
2019-05-14T10:47:32.834Z,102945.61
2019-05-14T10:50:02.526Z,102936.63
2019-05-14T10:52:31.905Z,102938.42
2019-05-14T10:55:01.560Z,102935.50
2019-05-14T10:57:30.936Z,102935.88
2019-05-14T11:00:00.587Z,102940.48
2019-05-14T11:02:29.964Z,102933.75
2019-05-14T11:04:59.621Z,102935.48
2019-05-14T11:07:29.310Z,102938.09
2019-05-14T11:10:19.667Z,102927.63
2019-05-14T11:12:50.662Z,102923.14
2019-05-14T11:15:39.686Z,102920.06
2019-05-14T11:18:09.031Z,102901.71
2019-05-14T11:20:42.147Z,102896.98
2019-05-14T11:23:18.297Z,102896.29
2019-05-14T11:25:58.144Z,102893.97
2019-05-14T11:28:39.277Z,102894.17
2019-05-14T11:31:13.614Z,102900.66
2019-05-14T11:33:42.993Z,102901.95
2019-05-14T11:36:12.654Z,102901.81
2019-05-14T11:38:42.157Z,102893.01
2019-05-14T11:41:11.705Z,102883.77
2019-05-14T11:43:41.085Z,102887.86
2019-05-14T11:49:01.041Z,102878.14
2019-05-14T11:51:58.411Z,102884.73
2019-05-14T11:54:09.478Z,102876.60
2019-05-14T11:56:43.828Z,102868.80
2019-05-14T12:02:09.748Z,102868.05
2019-05-14T12:04:39.330Z,102857.66
2019-05-14T12:07:09.592Z,102850.94
2019-05-14T12:09:45.034Z,102845.41
2019-05-14T12:12:18.825Z,102847.67
2019-05-14T12:15:48.594Z,102849.75
2019-05-14T12:18:23.260Z,102841.22
2019-05-14T12:20:52.986Z,102837.74
2019-05-14T12:23:23.985Z,102834.09
2019-05-14T12:25:53.640Z,102832.09
2019-05-14T12:28:23.072Z,102833.16
2019-05-14T12:30:53.017Z,102832.77
2019-05-14T12:33:34.522Z,102822.99
2019-05-14T12:36:03.898Z,102819.77
2019-05-14T12:38:33.274Z,102813.77
2019-05-14T12:41:02.970Z,102812.00
2019-05-14T12:43:32.358Z,102811.70
2019-05-14T12:46:02.022Z,102808.25
2019-05-14T12:48:33.002Z,102798.22
2019-05-14T12:51:02.387Z,102802.52
2019-05-14T12:53:31.830Z,102800.98
2019-05-14T12:56:01.497Z,102799.95
2019-05-14T12:58:30.892Z,102792.50
2019-05-14T13:01:00.277Z,102784.89
2019-05-14T13:03:29.889Z,102785.58
2019-05-14T13:05:59.532Z,102778.50
2019-05-14T13:08:29.078Z,102773.35
2019-05-14T13:10:58.766Z,102775.72
2019-05-14T13:13:34.911Z,102770.62
2019-05-14T13:16:04.655Z,102774.11
2019-05-14T13:18:34.051Z,102763.52
2019-05-14T13:21:03.404Z,102761.77
2019-05-14T13:23:32.969Z,102756.23
2019-05-14T13:26:02.651Z,102753.37
2019-05-14T13:28:33.927Z,102738.91
2019-05-14T13:31:03.283Z,102734.30
2019-05-14T13:33:32.966Z,102731.28
2019-05-14T13:36:02.350Z,102719.84
2019-05-14T13:38:32.251Z,102715.43
2019-05-14T13:41:01.940Z,102708.88
2019-05-14T13:43:31.303Z,102699.03
2019-05-14T13:46:00.986Z,102700.41
2019-05-14T13:48:30.342Z,102700.33
2019-05-14T13:51:00.013Z,102709.39
2019-05-14T13:53:29.753Z,102705.49
2019-05-14T13:56:08.840Z,102696.19
2019-05-14T13:59:09.087Z,102680.44
2019-05-14T14:01:43.045Z,102680.44
2019-05-14T14:04:15.183Z,102691.11
2019-05-14T14:07:02.866Z,102690.11
2019-05-14T14:09:32.254Z,102681.04
2019-05-14T14:12:01.933Z,102678.40
2019-05-14T14:14:31.632Z,102673.04
2019-05-14T14:17:01.248Z,102672.05
2019-05-14T14:22:24.654Z,102673.69
2019-05-14T14:25:08.899Z,102667.21
2019-05-14T14:27:40.766Z,102667.21
2019-05-14T14:30:15.272Z,102661.70
2019-05-14T14:32:44.893Z,102660.98
2019-05-14T14:38:49.453Z,102654.16
2019-05-14T14:41:25.260Z,102658.95
2019-05-14T14:43:55.372Z,102640.42
2019-05-14T14:46:31.581Z,102638.12
2019-05-14T14:52:04.081Z,102641.02
2019-05-14T14:54:33.454Z,102640.92
2019-05-14T14:57:04.737Z,102634.50
2019-05-14T14:59:34.193Z,102624.76
2019-05-14T15:02:03.606Z,102625.67
2019-05-14T15:04:33.129Z,102621.00
2019-05-14T15:07:02.819Z,102622.14
2019-05-14T15:09:32.161Z,102607.53
2019-05-14T15:12:01.537Z,102610.72
2019-05-14T15:14:31.204Z,102611.05
2019-05-14T15:17:00.570Z,102615.15
2019-05-14T15:19:30.187Z,102604.64
2019-05-14T15:22:11.904Z,102613.56
2019-05-14T15:24:41.252Z,102611.56
2019-05-14T15:27:15.045Z,102604.72
2019-05-14T15:30:01.390Z,102601.98
2019-05-14T15:32:32.389Z,102601.02
2019-05-14T15:35:01.746Z,102596.30
2019-05-14T15:37:31.595Z,102598.41
2019-05-14T15:40:22.517Z,102587.45
2019-05-14T15:42:58.985Z,102592.80
2019-05-14T15:45:34.568Z,102585.96
2019-05-14T15:48:04.493Z,102588.10
2019-05-14T15:50:33.858Z,102580.55
2019-05-14T15:53:22.834Z,102574.41
2019-05-14T15:55:52.450Z,102574.41
2019-05-14T15:58:21.897Z,102580.20
2019-05-14T16:00:51.558Z,102573.17
2019-05-14T16:03:21.200Z,102578.36
2019-05-14T16:05:50.878Z,102571.50
2019-05-14T16:08:22.697Z,102569.88
2019-05-14T16:11:11.308Z,102572.84
2019-05-14T16:13:49.379Z,102572.48
2019-05-14T16:16:24.289Z,102559.77
2019-05-14T16:18:53.657Z,102569.63
2019-05-14T16:21:23.221Z,102562.37
2019-05-14T16:23:54.505Z,102567.70
2019-05-14T16:26:23.865Z,102565.05
2019-05-14T16:28:53.549Z,102566.27
2019-05-14T16:31:22.728Z,102569.68
2019-05-14T16:33:52.396Z,102565.88
2019-05-14T16:36:21.754Z,102557.35
2019-05-14T16:38:51.510Z,102554.11
2019-05-14T16:41:20.889Z,102563.30
2019-05-14T16:43:50.604Z,102552.37
2019-05-14T16:46:20.276Z,102556.70
2019-05-14T16:48:49.965Z,102557.22
2019-05-14T16:51:19.588Z,102553.73
2019-05-14T16:53:49.505Z,102559.56
2019-05-14T16:56:19.329Z,102554.81
2019-05-14T16:59:09.395Z,102557.83
2019-05-14T17:01:40.396Z,102561.70
2019-05-14T17:04:09.778Z,102562.11
2019-05-14T17:06:39.266Z,102552.64
2019-05-14T17:09:08.972Z,102552.77
2019-05-14T17:11:59.483Z,102554.63
2019-05-14T17:14:29.406Z,102556.33
2019-05-14T17:17:31.625Z,102548.59
2019-05-14T17:20:01.297Z,102548.59
2019-05-14T17:22:33.828Z,102562.14
2019-05-14T17:25:09.311Z,102548.11
2019-05-14T17:27:43.747Z,102544.00
2019-05-14T17:30:13.395Z,102558.13
2019-05-14T17:32:42.752Z,102556.27
2019-05-14T17:35:12.545Z,102552.08
2019-05-14T17:37:42.194Z,102550.59
2019-05-14T17:40:32.483Z,102556.04
2019-05-14T17:43:01.851Z,102558.92
2019-05-14T17:58:13.152Z,102548.03
2019-05-14T18:00:44.910Z,102545.27
2019-05-14T18:03:14.352Z,102542.64
2019-05-14T18:05:43.735Z,102538.27
2019-05-14T18:08:13.394Z,102531.16
2019-05-14T18:10:42.771Z,102525.55
2019-05-14T18:13:12.442Z,102525.64
2019-05-14T18:15:41.827Z,102524.38
2019-05-14T18:18:12.833Z,102524.50
2019-05-14T18:20:42.519Z,102523.73
2019-05-14T18:23:11.981Z,102520.88
2019-05-14T18:25:41.443Z,102523.77
2019-05-14T18:28:10.827Z,102527.92
2019-05-14T18:30:40.495Z,102526.42
2019-05-14T18:33:09.867Z,102522.80
2019-05-14T18:35:43.977Z,102523.61
2019-05-14T18:38:16.015Z,102525.30
2019-05-14T18:40:45.691Z,102526.14
2019-05-14T18:43:15.133Z,102526.67
2019-05-14T18:49:36.999Z,102529.84
2019-05-14T18:52:08.939Z,102525.77
2019-05-14T18:54:44.326Z,102523.88
2019-05-14T18:57:13.837Z,102529.64
2019-05-14T18:59:43.566Z,102529.53
2019-05-14T19:02:12.932Z,102537.73
2019-05-14T19:04:42.627Z,102533.20
2019-05-14T19:07:15.430Z,102528.67
2019-05-14T19:10:02.177Z,102531.36
2019-05-14T19:12:32.181Z,102530.52
2019-05-14T19:15:01.933Z,102528.81
2019-05-14T19:17:31.596Z,102533.89
2019-05-14T19:20:01.520Z,102534.52
2019-05-14T19:22:30.975Z,102531.55
2019-05-14T19:25:00.361Z,102531.67
2019-05-14T19:27:48.601Z,102534.98
2019-05-14T19:30:19.178Z,102531.25
2019-05-14T19:32:48.926Z,102538.31
2019-05-14T19:35:19.154Z,102542.02
2019-05-14T19:37:49.049Z,102542.83
2019-05-14T19:40:19.118Z,102535.97
2019-05-14T19:42:49.840Z,102543.72
2019-05-14T19:45:19.285Z,102545.54
2019-05-14T19:47:49.447Z,102543.02
2019-05-14T19:50:18.987Z,102541.77
2019-05-14T19:52:48.881Z,102551.92
2019-05-14T19:55:18.885Z,102551.59
2019-05-14T19:57:48.978Z,102557.10
2019-05-14T20:00:23.841Z,102560.80
2019-05-14T20:02:53.518Z,102560.59
2019-05-14T20:05:22.952Z,102564.70
2019-05-14T20:07:52.789Z,102558.41
2019-05-14T20:10:22.173Z,102562.80
2019-05-14T20:12:51.840Z,102564.92
2019-05-14T20:15:21.215Z,102564.00
2019-05-14T20:17:50.882Z,102560.25
2019-05-14T20:20:20.261Z,102562.06
2019-05-14T20:22:50.163Z,102558.92
2019-05-14T20:25:19.875Z,102565.81
2019-05-14T20:27:50.208Z,102564.55
2019-05-14T20:30:20.058Z,102569.30
2019-05-14T20:32:49.674Z,102557.05
2019-05-14T20:35:30.937Z,102557.08
2019-05-14T20:37:50.160Z,102558.95
2019-05-14T20:40:19.542Z,102559.30
2019-05-14T20:42:49.368Z,102569.05
2019-05-14T20:45:19.246Z,102563.62
2019-05-14T20:47:48.618Z,102562.93
2019-05-14T20:50:18.291Z,102552.08
2019-05-14T20:52:48.479Z,102560.20
2019-05-14T20:55:19.061Z,102559.41
2019-05-14T20:57:49.509Z,102560.00
2019-05-14T21:00:19.209Z,102559.91
2019-05-14T21:02:48.872Z,102553.29
2019-05-14T21:05:18.867Z,102553.29
2019-05-14T21:07:49.304Z,102562.42
2019-05-14T21:10:19.263Z,102562.42
2019-05-14T21:12:48.951Z,102559.72
2019-05-14T21:15:18.365Z,102559.65
2019-05-14T21:17:50.377Z,102559.96
2019-05-14T21:20:20.417Z,102563.34
2019-05-14T21:22:50.235Z,102559.21
2019-05-14T21:25:19.615Z,102564.51
2019-05-14T21:27:52.039Z,102565.00
2019-05-14T21:30:21.910Z,102566.39
2019-05-14T21:32:51.683Z,102558.29
2019-05-14T21:35:21.311Z,102564.52
2019-05-14T21:37:51.503Z,102562.52
2019-05-14T21:40:21.022Z,102564.20
2019-05-14T21:42:50.385Z,102568.09
2019-05-14T21:45:20.126Z,102565.17
2019-05-14T21:47:49.515Z,102561.91
2019-05-14T21:50:19.146Z,102563.59
2019-05-14T21:52:49.549Z,102560.94
2019-05-14T21:55:20.140Z,102560.63
2019-05-14T21:57:56.516Z,102564.45
2019-05-14T22:00:29.470Z,102559.52
2019-05-14T22:03:00.593Z,102552.67
2019-05-14T22:05:30.154Z,102545.34
2019-05-14T22:07:59.575Z,102547.67
2019-05-14T22:10:29.124Z,102549.00
2019-05-14T22:12:58.576Z,102548.04
2019-05-14T22:15:29.260Z,102543.87
2019-05-14T22:17:58.909Z,102545.33
2019-05-14T22:20:28.976Z,102543.89
2019-05-14T22:22:59.103Z,102542.80
2019-05-14T22:25:31.223Z,102544.85
2019-05-14T22:28:11.516Z,102545.45
2019-05-14T22:30:32.177Z,102545.48
2019-05-14T22:33:01.559Z,102551.36
2019-05-14T22:35:32.131Z,102554.10
2019-05-14T22:38:01.806Z,102550.42
2019-05-14T22:40:31.243Z,102559.62
2019-05-14T22:43:00.627Z,102555.72
2019-05-14T22:45:30.161Z,102554.99
2019-05-14T22:47:59.843Z,102553.38
2019-05-14T22:50:29.574Z,102557.59
2019-05-14T22:52:59.251Z,102551.07
2019-05-14T22:55:31.185Z,102556.67
2019-05-14T22:58:01.240Z,102559.99
2019-05-14T23:03:05.773Z,102558.27
2019-05-14T23:05:35.243Z,102556.90
2019-05-14T23:08:04.627Z,102564.86
2019-05-14T23:10:34.306Z,102564.27
2019-05-14T23:13:03.747Z,102556.07
2019-05-14T23:15:33.255Z,102558.56
2019-05-14T23:18:02.635Z,102555.14
2019-05-14T23:20:32.299Z,102558.45
2019-05-14T23:23:01.683Z,102555.48
2019-05-14T23:25:31.272Z,102561.14
2019-05-14T23:28:00.683Z,102557.39
2019-05-14T23:30:59.707Z,102555.89
2019-05-14T23:33:43.164Z,102557.34
2019-05-14T23:36:12.528Z,102543.50
2019-05-14T23:38:42.203Z,102549.18
2019-05-14T23:41:11.588Z,102545.86
2019-05-14T23:43:41.287Z,102547.73
2019-05-14T23:46:10.671Z,102553.80
2019-05-14T23:48:40.353Z,102550.31
2019-05-14T23:51:10.011Z,102545.13
2019-05-14T23:53:39.502Z,102546.02
2019-05-14T23:56:09.120Z,102541.53
2019-05-14T23:58:38.506Z,102545.19
